www.cux-wetter.de
Wetterdaten: Donnerstag, 15.08.2013
Datum Zeit Temp. A. Feuchte A. Luftdruck Regen Wind Richtung Richtung Sonnenschein Solar Taupunkt Windchill Windben
15.08.2013 00:00 15,1 C 72 % 1021,5 hPa 0,0 l/m 16,3 km/h (3 Bft) N 355 0 min 0 W/m 10,1 C 10,9 C 16,3 km/h (3 Bft)
15.08.2013 00:15 15,0 C 73 % 1021,5 hPa 0,0 l/m 16,3 km/h (3 Bft) N 355 0 min 0 W/m 10,2 C 10,8 C 16,3 km/h (3 Bft)
15.08.2013 00:30 14,6 C 74 % 1021,5 hPa 0,0 l/m 16,3 km/h (3 Bft) N 355 0 min 0 W/m 10,0 C 10,3 C 16,3 km/h (3 Bft)
15.08.2013 00:45 14,3 C 74 % 1021,5 hPa 0,0 l/m 16,3 km/h (3 Bft) N 355 0 min 0 W/m 9,7 C 9,9 C 16,3 km/h (3 Bft)
15.08.2013 01:00 14,0 C 75 % 1021,5 hPa 0,0 l/m 16,3 km/h (3 Bft) N 355 0 min 0 W/m 9,6 C 9,5 C 16,3 km/h (3 Bft)
15.08.2013 01:15 13,9 C 76 % 1021,5 hPa 0,0 l/m 16,3 km/h (3 Bft) N 355 0 min 0 W/m 9,7 C 9,4 C 16,3 km/h (3 Bft)
15.08.2013 01:30 13,8 C 77 % 1021,5 hPa 0,0 l/m 16,3 km/h (3 Bft) N 355 0 min 0 W/m 9,8 C 9,3 C 16,3 km/h (3 Bft)
15.08.2013 01:45 13,5 C 76 % 1021,5 hPa 0,0 l/m 0,0 km/h (0 Bft) SW 235 0 min 0 W/m 9,4 C 13,5 C 0,0 km/h (0 Bft)
15.08.2013 02:00 13,2 C 78 % 1020,5 hPa 0,0 l/m 0,0 km/h (0 Bft) SW 235 0 min 0 W/m 9,4 C 13,2 C 0,0 km/h (0 Bft)
15.08.2013 02:15 13,0 C 79 % 1020,5 hPa 0,0 l/m 0,0 km/h (0 Bft) SW 235 0 min 0 W/m 9,4 C 13,0 C 0,0 km/h (0 Bft)
15.08.2013 02:30 13,0 C 79 % 1020,5 hPa 0,0 l/m 0,0 km/h (0 Bft) SW 235 0 min 0 W/m 9,4 C 13,0 C 0,0 km/h (0 Bft)
15.08.2013 02:45 12,9 C 79 % 1020,5 hPa 0,0 l/m 0,0 km/h (0 Bft) SW 235 0 min 0 W/m 9,3 C 12,9 C 0,0 km/h (0 Bft)
15.08.2013 03:00 12,8 C 79 % 1020,5 hPa 0,0 l/m 0,0 km/h (0 Bft) SW 235 0 min 0 W/m 9,2 C 12,8 C 0,0 km/h (0 Bft)
15.08.2013 03:15 12,6 C 80 % 1020,5 hPa 0,0 l/m 0,0 km/h (0 Bft) SW 235 0 min 0 W/m 9,2 C 12,6 C 0,0 km/h (0 Bft)
15.08.2013 03:30 12,6 C 80 % 1020,5 hPa 0,0 l/m 0,0 km/h (0 Bft) SW 235 0 min 0 W/m 9,2 C 12,6 C 0,0 km/h (0 Bft)
15.08.2013 03:45 12,6 C 80 % 1020,5 hPa 0,0 l/m 0,0 km/h (0 Bft) SW 235 0 min 0 W/m 9,2 C 12,6 C 0,0 km/h (0 Bft)
15.08.2013 04:00 12,5 C 81 % 1020,5 hPa 0,0 l/m 0,0 km/h (0 Bft) SW 235 0 min 0 W/m 9,3 C 12,5 C 0,0 km/h (0 Bft)
15.08.2013 04:15 12,5 C 81 % 1020,5 hPa 0,0 l/m 0,0 km/h (0 Bft) SW 235 0 min 0 W/m 9,3 C 12,5 C 0,0 km/h (0 Bft)
15.08.2013 04:30 12,4 C 81 % 1020,5 hPa 0,0 l/m 4,0 km/h (1 Bft) SW 235 0 min 0 W/m 9,2 C 12,4 C 4,0 km/h (1 Bft)
15.08.2013 04:45 12,4 C 81 % 1020,5 hPa 0,0 l/m 2,8 km/h (1 Bft) SW 235 0 min 0 W/m 9,2 C 12,4 C 2,8 km/h (1 Bft)
15.08.2013 05:00 12,1 C 81 % 1021,5 hPa 0,0 l/m 2,8 km/h (1 Bft) SW 235 0 min 0 W/m 8,9 C 12,1 C 2,8 km/h (1 Bft)
15.08.2013 05:15 11,8 C 82 % 1021,5 hPa 0,0 l/m 2,8 km/h (1 Bft) SW 235 0 min 0 W/m 8,8 C 11,8 C 2,8 km/h (1 Bft)
15.08.2013 05:30 11,7 C 82 % 1020,5 hPa 0,0 l/m 2,8 km/h (1 Bft) SW 235 0 min 0 W/m 8,7 C 11,7 C 2,8 km/h (1 Bft)
15.08.2013 05:44 11,6 C 82 % 1020,5 hPa 0,0 l/m 2,8 km/h (1 Bft) SW 235 0 min 0 W/m 8,6 C 11,6 C 2,8 km/h (1 Bft)
15.08.2013 06:00 11,5 C 83 % 1020,5 hPa 0,0 l/m 2,8 km/h (1 Bft) SW 235 0 min 0 W/m 8,7 C 11,5 C 2,8 km/h (1 Bft)
15.08.2013 06:15 11,4 C 83 % 1020,5 hPa 0,0 l/m 0,0 km/h (0 Bft) SW 235 0 min 0 W/m 8,6 C 11,4 C 0,0 km/h (0 Bft)
15.08.2013 06:30 11,4 C 83 % 1020,5 hPa 0,0 l/m 0,0 km/h (0 Bft) SW 235 0 min 0 W/m 8,6 C 11,4 C 0,0 km/h (0 Bft)
15.08.2013 06:45 11,4 C 83 % 1020,5 hPa 0,0 l/m 0,0 km/h (0 Bft) SW 235 0 min 0 W/m 8,6 C 11,4 C 0,0 km/h (0 Bft)
15.08.2013 07:00 11,4 C 83 % 1020,5 hPa 0,0 l/m 0,0 km/h (0 Bft) SW 235 0 min 0 W/m 8,6 C 11,4 C 0,0 km/h (0 Bft)
15.08.2013 07:15 11,3 C 83 % 1020,5 hPa 0,0 l/m 0,0 km/h (0 Bft) SW 235 0 min 0 W/m 8,5 C 11,3 C 0,0 km/h (0 Bft)
15.08.2013 07:30 11,4 C 84 % 1020,5 hPa 0,0 l/m 2,8 km/h (1 Bft) SW 235 0 min 0 W/m 8,8 C 11,4 C 2,8 km/h (1 Bft)
15.08.2013 07:45 11,5 C 84 % 1020,5 hPa 0,0 l/m 2,8 km/h (1 Bft) SW 235 0 min 0 W/m 8,9 C 11,5 C 2,8 km/h (1 Bft)
15.08.2013 08:00 11,8 C 85 % 1020,5 hPa 0,0 l/m 7,0 km/h (2 Bft) S 190 0 min 0 W/m 9,4 C 11,4 C 7,0 km/h (2 Bft)
15.08.2013 08:15 12,1 C 85 % 1020,5 hPa 0,0 l/m 8,9 km/h (2 Bft) S 190 0 min 0 W/m 9,7 C 10,5 C 8,9 km/h (2 Bft)
15.08.2013 08:30 12,4 C 86 % 1020,5 hPa 0,0 l/m 8,9 km/h (2 Bft) S 190 0 min 0 W/m 10,1 C 10,8 C 8,9 km/h (2 Bft)
15.08.2013 08:45 12,8 C 87 % 1020,5 hPa 0,0 l/m 8,9 km/h (2 Bft) S 190 0 min 0 W/m 10,7 C 11,3 C 8,9 km/h (2 Bft)
15.08.2013 09:00 13,2 C 87 % 1020,5 hPa 0,0 l/m 8,9 km/h (2 Bft) S 190 0 min 0 W/m 11,1 C 11,7 C 8,9 km/h (2 Bft)
15.08.2013 09:15 13,6 C 87 % 1020,5 hPa 0,0 l/m 8,9 km/h (2 Bft) S 190 0 min 0 W/m 11,5 C 12,1 C 8,9 km/h (2 Bft)
15.08.2013 09:30 14,0 C 86 % 1020,5 hPa 0,0 l/m 8,9 km/h (2 Bft) S 190 0 min 0 W/m 11,7 C 12,6 C 8,9 km/h (2 Bft)
15.08.2013 09:45 14,4 C 85 % 1020,5 hPa 0,0 l/m 8,9 km/h (2 Bft) S 190 0 min 0 W/m 11,9 C 13,0 C 8,9 km/h (2 Bft)
15.08.2013 10:00 14,9 C 84 % 1020,5 hPa 0,0 l/m 8,9 km/h (2 Bft) S 190 0 min 0 W/m 12,2 C 13,5 C 8,9 km/h (2 Bft)
15.08.2013 10:15 15,4 C 81 % 1020,5 hPa 0,0 l/m 8,9 km/h (2 Bft) S 190 0 min 0 W/m 12,2 C 14,1 C 8,9 km/h (2 Bft)
15.08.2013 10:30 16,2 C 79 % 1020,5 hPa 0,0 l/m 15,0 km/h (3 Bft) W 280 0 min 0 W/m 12,6 C 12,6 C 15,0 km/h (3 Bft)
15.08.2013 10:45 17,4 C 74 % 1020,5 hPa 0,0 l/m 17,3 km/h (3 Bft) W 265 0 min 0 W/m 12,7 C 13,5 C 17,3 km/h (3 Bft)
15.08.2013 11:00 18,4 C 68 % 1020,5 hPa 0,0 l/m 14,3 km/h (3 Bft) W-SW 255 0 min 0 W/m 12,4 C 15,5 C 14,3 km/h (3 Bft)
15.08.2013 11:15 19,2 C 65 % 1020,5 hPa 0,0 l/m 14,8 km/h (3 Bft) W 270 0 min 0 W/m 12,5 C 16,3 C 14,8 km/h (3 Bft)
15.08.2013 11:30 20,0 C 62 % 1019,5 hPa 0,0 l/m 15,1 km/h (3 Bft) W-SW 255 0 min 0 W/m 12,5 C 17,2 C 15,1 km/h (3 Bft)
15.08.2013 11:45 20,6 C 61 % 1019,5 hPa 0,0 l/m 12,1 km/h (2 Bft) SW 235 0 min 0 W/m 12,8 C 18,7 C 12,1 km/h (2 Bft)
15.08.2013 12:00 21,0 C 59 % 1019,5 hPa 0,0 l/m 12,1 km/h (2 Bft) SW 235 0 min 0 W/m 12,7 C 19,2 C 12,1 km/h (2 Bft)
15.08.2013 12:15 21,3 C 58 % 1019,5 hPa 0,0 l/m 14,2 km/h (3 Bft) W 270 0 min 0 W/m 12,7 C 19,0 C 14,2 km/h (3 Bft)
15.08.2013 12:30 21,8 C 57 % 1019,5 hPa 0,0 l/m 14,2 km/h (3 Bft) W 270 0 min 0 W/m 12,9 C 19,6 C 14,2 km/h (3 Bft)
15.08.2013 12:45 22,2 C 56 % 1019,5 hPa 0,0 l/m 14,2 km/h (3 Bft) W 270 0 min 0 W/m 13,0 C 20,1 C 14,2 km/h (3 Bft)
15.08.2013 13:00 22,1 C 57 % 1018,5 hPa 0,0 l/m 14,2 km/h (3 Bft) W 270 0 min 0 W/m 13,2 C 20,0 C 14,2 km/h (3 Bft)
15.08.2013 13:15 21,8 C 55 % 1018,5 hPa 0,0 l/m 17,1 km/h (3 Bft) W 275 0 min 0 W/m 12,4 C 19,0 C 17,1 km/h (3 Bft)
15.08.2013 13:30 21,5 C 58 % 1019,5 hPa 0,0 l/m 13,6 km/h (3 Bft) SW 235 0 min 0 W/m 12,9 C 19,4 C 13,6 km/h (3 Bft)
15.08.2013 13:45 21,4 C 59 % 1018,5 hPa 0,0 l/m 18,6 km/h (3 Bft) S-SW 200 0 min 0 W/m 13,0 C 18,3 C 18,6 km/h (3 Bft)
15.08.2013 14:00 21,5 C 59 % 1018,5 hPa 0,0 l/m 17,9 km/h (3 Bft) W-NW 290 0 min 0 W/m 13,1 C 18,5 C 17,9 km/h (3 Bft)
15.08.2013 14:15 21,7 C 57 % 1018,5 hPa 0,0 l/m 18,0 km/h (3 Bft) W 260 0 min 0 W/m 12,8 C 18,7 C 18,0 km/h (3 Bft)
15.08.2013 14:30 22,1 C 58 % 1018,5 hPa 0,0 l/m 19,1 km/h (3 Bft) W-SW 250 0 min 0 W/m 13,4 C 19,1 C 19,1 km/h (3 Bft)
15.08.2013 14:45 22,0 C 57 % 1018,5 hPa 0,0 l/m 16,7 km/h (3 Bft) W-SW 245 0 min 0 W/m 13,1 C 19,3 C 16,7 km/h (3 Bft)
15.08.2013 15:00 22,8 C 56 % 1018,5 hPa 0,0 l/m 18,1 km/h (3 Bft) W 270 0 min 0 W/m 13,6 C 20,1 C 18,1 km/h (3 Bft)
15.08.2013 15:15 22,2 C 56 % 1018,5 hPa 0,0 l/m 17,8 km/h (3 Bft) W 260 0 min 0 W/m 13,0 C 19,4 C 17,8 km/h (3 Bft)
15.08.2013 15:30 22,5 C 55 % 1018,5 hPa 0,0 l/m 18,6 km/h (3 Bft) W 265 0 min 0 W/m 13,0 C 19,7 C 18,6 km/h (3 Bft)
15.08.2013 15:45 22,1 C 56 % 1018,5 hPa 0,0 l/m 15,6 km/h (3 Bft) W 270 0 min 0 W/m 12,9 C 19,7 C 15,6 km/h (3 Bft)
15.08.2013 16:00 21,8 C 57 % 1018,5 hPa 0,0 l/m 27,1 km/h (5 Bft) W-NW 290 0 min 0 W/m 12,9 C 17,6 C 27,1 km/h (5 Bft)
15.08.2013 16:15 21,6 C 57 % 1018,5 hPa 0,0 l/m 18,1 km/h (3 Bft) W-NW 285 0 min 0 W/m 12,7 C 18,6 C 18,1 km/h (3 Bft)
15.08.2013 16:30 21,4 C 56 % 1018,5 hPa 0,0 l/m 17,1 km/h (3 Bft) W-NW 285 0 min 0 W/m 12,3 C 18,5 C 17,1 km/h (3 Bft)
15.08.2013 16:45 21,0 C 59 % 1018,5 hPa 0,0 l/m 16,2 km/h (3 Bft) W-NW 285 0 min 0 W/m 12,7 C 18,2 C 16,2 km/h (3 Bft)
15.08.2013 17:00 20,8 C 60 % 1018,5 hPa 0,0 l/m 12,2 km/h (2 Bft) W 265 0 min 0 W/m 12,7 C 18,9 C 12,2 km/h (2 Bft)
15.08.2013 17:15 20,6 C 63 % 1018,5 hPa 0,0 l/m 12,2 km/h (2 Bft) W 265 0 min 0 W/m 13,3 C 18,7 C 12,2 km/h (2 Bft)
15.08.2013 17:30 20,2 C 66 % 1018,5 hPa 0,0 l/m 12,2 km/h (2 Bft) W 265 0 min 0 W/m 13,6 C 18,2 C 12,2 km/h (2 Bft)
15.08.2013 17:45 19,9 C 69 % 1018,5 hPa 0,0 l/m 12,2 km/h (2 Bft) W 265 0 min 0 W/m 14,0 C 17,9 C 12,2 km/h (2 Bft)
15.08.2013 18:00 19,5 C 72 % 1018,5 hPa 0,3 l/m 12,2 km/h (2 Bft) W 265 0 min 0 W/m 14,3 C 17,4 C 12,2 km/h (2 Bft)
15.08.2013 18:15 19,2 C 75 % 1018,5 hPa 0,0 l/m 12,2 km/h (2 Bft) W 265 0 min 0 W/m 14,7 C 17,0 C 12,2 km/h (2 Bft)
15.08.2013 18:30 18,9 C 75 % 1018,5 hPa 0,0 l/m 12,2 km/h (2 Bft) W 265 0 min 0 W/m 14,4 C 16,7 C 12,2 km/h (2 Bft)
15.08.2013 18:45 18,8 C 77 % 1018,5 hPa 0,0 l/m 12,2 km/h (2 Bft) W 265 0 min 0 W/m 14,7 C 16,6 C 12,2 km/h (2 Bft)
15.08.2013 19:00 18,6 C 79 % 1018,5 hPa 0,0 l/m 12,2 km/h (2 Bft) W 265 0 min 0 W/m 14,9 C 16,4 C 12,2 km/h (2 Bft)
15.08.2013 19:15 18,4 C 81 % 1017,5 hPa 0,0 l/m 12,2 km/h (2 Bft) W 265 0 min 0 W/m 15,1 C 16,1 C 12,2 km/h (2 Bft)
15.08.2013 19:30 18,3 C 82 % 1017,5 hPa 0,0 l/m 12,2 km/h (2 Bft) W 265 0 min 0 W/m 15,2 C 16,0 C 12,2 km/h (2 Bft)
15.08.2013 19:45 18,1 C 82 % 1017,5 hPa 0,0 l/m 12,2 km/h (2 Bft) W 265 0 min 0 W/m 15,0 C 15,8 C 12,2 km/h (2 Bft)
15.08.2013 20:00 18,0 C 82 % 1017,5 hPa 0,0 l/m 12,2 km/h (2 Bft) W 265 0 min 0 W/m 14,9 C 15,7 C 12,2 km/h (2 Bft)
15.08.2013 20:15 17,9 C 81 % 1017,5 hPa 0,0 l/m 12,2 km/h (2 Bft) W 265 0 min 0 W/m 14,6 C 15,5 C 12,2 km/h (2 Bft)
15.08.2013 20:30 17,7 C 81 % 1017,5 hPa 0,0 l/m 12,2 km/h (2 Bft) W 265 0 min 0 W/m 14,4 C 15,3 C 12,2 km/h (2 Bft)
15.08.2013 20:45 17,7 C 81 % 1017,5 hPa 0,0 l/m 12,2 km/h (2 Bft) W 265 0 min 0 W/m 14,4 C 15,3 C 12,2 km/h (2 Bft)
15.08.2013 21:00 17,6 C 81 % 1017,5 hPa 0,0 l/m 12,2 km/h (2 Bft) W 265 0 min 0 W/m 14,3 C 15,2 C 12,2 km/h (2 Bft)
15.08.2013 21:15 17,4 C 82 % 1017,5 hPa 0,0 l/m 12,2 km/h (2 Bft) W 265 0 min 0 W/m 14,3 C 15,0 C 12,2 km/h (2 Bft)
15.08.2013 21:30 17,4 C 82 % 1017,5 hPa 0,0 l/m 12,2 km/h (2 Bft) W 265 0 min 0 W/m 14,3 C 15,0 C 12,2 km/h (2 Bft)
15.08.2013 21:45 17,3 C 83 % 1017,5 hPa 0,0 l/m 12,2 km/h (2 Bft) W 265 0 min 0 W/m 14,4 C 14,9 C 12,2 km/h (2 Bft)
15.08.2013 22:00 17,2 C 84 % 1017,5 hPa 0,0 l/m 12,2 km/h (2 Bft) W 265 0 min 0 W/m 14,5 C 14,7 C 12,2 km/h (2 Bft)
15.08.2013 22:15 17,2 C 84 % 1017,5 hPa 0,0 l/m 12,2 km/h (2 Bft) W 265 0 min 0 W/m 14,5 C 14,7 C 12,2 km/h (2 Bft)
15.08.2013 22:30 17,3 C 85 % 1017,5 hPa 0,0 l/m 12,2 km/h (2 Bft) W 265 0 min 0 W/m 14,8 C 14,9 C 12,2 km/h (2 Bft)
15.08.2013 22:45 17,3 C 86 % 1017,5 hPa 0,3 l/m 12,2 km/h (2 Bft) W 265 0 min 0 W/m 14,9 C 14,9 C 12,2 km/h (2 Bft)
15.08.2013 23:00 17,3 C 87 % 1017,5 hPa 0,0 l/m 12,2 km/h (2 Bft) W 265 0 min 0 W/m 15,1 C 14,9 C 12,2 km/h (2 Bft)
15.08.2013 23:15 17,3 C 87 % 1017,5 hPa 0,0 l/m 12,2 km/h (2 Bft) W 265 0 min 0 W/m 15,1 C 14,9 C 12,2 km/h (2 Bft)
15.08.2013 23:30 17,3 C 87 % 1017,5 hPa 0,0 l/m 12,2 km/h (2 Bft) W 265 0 min 0 W/m 15,1 C 14,9 C 12,2 km/h (2 Bft)
15.08.2013 23:45 17,3 C 88 % 1017,5 hPa 0,0 l/m 10,3 km/h (2 Bft) SW 225 0 min 0 W/m 15,3 C 15,5 C 10,3 km/h (2 Bft)
_ Min-Zeit 07:15 13:15 19:15 - 01:45 - - - - 07:15 01:30 01:45
Minimum _ 11,3 C 55 % 1017,5 hPa - 0,0 km/h (0 Bft) - - - - 8,5 C 9,3 C 0,0 km/h (0 Bft)
_ Max-Zeit 15:00 23:45 00:00 18:00 16:00 - - 00:00 00:00 23:45 15:00 16:00
Maximum _ 22,8 C 88 % 1021,5 hPa 0,3 l/m 27,1 km/h
W-NW (5 Bft)
- - 0 min 0 W/m 15,3 C 20,1 C 27,1 km/h
W-NW (5 Bft)
Durchschnitt _ 16,7 C 75 % 1019,4 hPa #0,6 l/m 10,3 km/h (2 Bft) W - #0 min. 0 W/m 11,9 C 14,8 C 10,3 km/h (2 Bft)
copyright by Holger Just